Terminal Aerodrome Forecast
Issued by NWS

Home | Current Version | Previous Version | Text Only | Print | Product List | Glossary On
Versions: 1 2 3 4 5 6 7 8 9 10 11 12 13 14 15
000
FTUS45 KTFX 050520
TAFCTB
TAF
KCTB 050520Z 0506/0606 VRB05KT P6SM SCT110 BKN150
      TEMPO 0508/0511 -SHRA BKN060
     FM052000 35010KT P6SM SCT070 BKN100 PROB30 0523/0602 VRB20G30KT
      -TSRA BKN050CB
     FM060400 32010KT P6SM SCT060 BKN100=

USA.gov is the U.S. government's official web portal to all federal, state and local government web resources and services.